O'Kean, AR (72449)

3:46 AM CDT on April 01, 2015 (GMT -0500)
William White Subdivision | | Change Station
CLOSE
Current Station
Personal Weather Station
Location: Paragould, AR
Elevation: 331 ft
Nearby Weather Stations
Active Advisory: Flood Warning

Elev 331 ft 36.05 °N, 90.50 °W | Updated 4 seconds ago

Clear
Clear
59.5 °F
Feels Like 59.5 °F
N
2.9
Wind Variable Wind from NE
Gusts 4.9 mph

Today
High -- | Low -- °F
--% Chance of Precip.
Yesterday
High -- | Low -- °F
Precip. -- in
6:49 AM 7:25 PM
Waxing Gibbous, 91% visible
Pressure 29.95 in
Visibility 10.0 miles
Clouds Clear
Dew Point 52 °F
Humidity 77%
Rainfall 0.00 in
Snow Depth Not available.
UV 0 out of 12
Pollen 10.20 out of 12
Air Quality Not available.
Flu Activity Not available.
METAR KJBR 010753Z AUTO 06007KT 10SM CLR 14/13 A2995 RMK AO2 SLP141 T01390128 $

More Conditions Fewer Conditions

Pressure 29.95 in
Visibility 10.0 miles
Clouds Clear
Dew Point 52 °F
Humidity 77%
Rainfall 0.00 in
Snow Depth Not available.
UV 0 out of 12
Pollen 10.20 out of 12
Air Quality Not available.
Flu Activity Not available.
METAR KJBR 010753Z AUTO 06007KT 10SM CLR 14/13 A2995 RMK AO2 SLP141 T01390128 $

More Conditions Fewer Conditions

10-Day Weather Forecast

Almanac

Astronomy

Apr. 01, 2015 Rise Set
Actual Time
Civil Twilight
Nautical Twilight
Astronomical Twilight
Moon
Length of Visible Light
Length of Day
Tomorrow will be .
, % of the Moon is Illuminated

Today's Extremes

State Highs State Lows

Community

WunderPhotos

Upload Photos

1,809,933 photos uploaded!

WunderBlogs® & News

Nearby

Air Quality

  Air Quality AQ Index Pollutant
Not available.

Snow Depth

Station Depth Elevation

Earthquake Activity

City Distance Mag. Time & Date
Minimum magnitude displayed is 2.5.

Coastal Water Temperatures

Place Temperature

Stations

Nearby Weather Stations

Station Location Temp. Windchill Dew Point Humidity Wind Precip. Elev Updated Type
                   
Flood Warning
Statement as of 8:20 PM CDT on March 31, 2015

The Flood Warning continues for
the Black River at Pocahontas.
* Until Sunday afternoon... or until the warning is cancelled.
* At 8:00 PM Tuesday the stage was 18.8 feet.
* Minor flooding is occurring and minor flooding is forecast.
* Flood stage is 17.0 feet.
* Forecast... the river will continue to fall to below flood stage by
this weekend.





             Fld observed forecast 7 am
location stg stg day time Wed Thu Fri Sat sun

Black River
Pocahontas 17 18.8 Tue 08 PM 18.6 18.2 17.7 17.1 16.5




Lat... Lon 3612 9115 3625 9106 3630 9095 3620 9089
3617 9098 3610 9101